sensor_id;sensor_type;location;lat;lon;timestamp;temperature;humidity
13344;DHT22;6741;48.964;9.406;2022-09-20T00:02:19;9.00;99.90
13344;DHT22;6741;48.964;9.406;2022-09-20T00:04:47;9.00;99.90
13344;DHT22;6741;48.964;9.406;2022-09-20T00:07:15;9.00;99.90
13344;DHT22;6741;48.964;9.406;2022-09-20T00:09:42;9.00;99.90
13344;DHT22;6741;48.964;9.406;2022-09-20T00:12:09;9.00;99.90
13344;DHT22;6741;48.964;9.406;2022-09-20T00:14:36;9.00;99.90
13344;DHT22;6741;48.964;9.406;2022-09-20T00:17:03;9.00;99.90
13344;DHT22;6741;48.964;9.406;2022-09-20T00:19:29;9.10;99.90
13344;DHT22;6741;48.964;9.406;2022-09-20T00:21:56;9.10;99.90
13344;DHT22;6741;48.964;9.406;2022-09-20T00:24:25;9.10;99.90
13344;DHT22;6741;48.964;9.406;2022-09-20T00:26:52;9.10;99.90
13344;DHT22;6741;48.964;9.406;2022-09-20T00:29:19;9.10;99.90
13344;DHT22;6741;48.964;9.406;2022-09-20T00:31:47;9.10;99.90
13344;DHT22;6741;48.964;9.406;2022-09-20T00:34:13;9.00;99.90
13344;DHT22;6741;48.964;9.406;2022-09-20T00:36:58;9.00;99.90
13344;DHT22;6741;48.964;9.406;2022-09-20T00:39:26;9.00;99.90
13344;DHT22;6741;48.964;9.406;2022-09-20T00:41:53;9.10;99.90
13344;DHT22;6741;48.964;9.406;2022-09-20T00:44:52;9.00;99.90
13344;DHT22;6741;48.964;9.406;2022-09-20T00:47:25;9.00;99.90
13344;DHT22;6741;48.964;9.406;2022-09-20T00:49:56;9.00;99.90
13344;DHT22;6741;48.964;9.406;2022-09-20T00:52:25;9.00;99.90
13344;DHT22;6741;48.964;9.406;2022-09-20T00:54:55;9.00;99.90
13344;DHT22;6741;48.964;9.406;2022-09-20T00:57:22;9.00;99.90
13344;DHT22;6741;48.964;9.406;2022-09-20T00:59:50;9.00;99.90
13344;DHT22;6741;48.964;9.406;2022-09-20T01:02:20;9.00;99.90
13344;DHT22;6741;48.964;9.406;2022-09-20T01:04:48;9.00;99.90
13344;DHT22;6741;48.964;9.406;2022-09-20T01:07:17;9.00;99.90
13344;DHT22;6741;48.964;9.406;2022-09-20T01:09:46;9.10;99.90
13344;DHT22;6741;48.964;9.406;2022-09-20T01:12:18;9.10;99.90
13344;DHT22;6741;48.964;9.406;2022-09-20T01:14:47;9.00;99.90
13344;DHT22;6741;48.964;9.406;2022-09-20T01:17:15;9.10;99.90
13344;DHT22;6741;48.964;9.406;2022-09-20T01:19:51;9.10;99.90
13344;DHT22;6741;48.964;9.406;2022-09-20T01:22:24;9.00;99.90
13344;DHT22;6741;48.964;9.406;2022-09-20T01:24:58;9.10;99.90
13344;DHT22;6741;48.964;9.406;2022-09-20T01:27:48;9.00;99.90
13344;DHT22;6741;48.964;9.406;2022-09-20T01:30:18;9.10;99.90
13344;DHT22;6741;48.964;9.406;2022-09-20T01:32:57;9.00;99.90
13344;DHT22;6741;48.964;9.406;2022-09-20T01:35:27;9.00;99.90
13344;DHT22;6741;48.964;9.406;2022-09-20T01:38:04;9.00;99.90
13344;DHT22;6741;48.964;9.406;2022-09-20T01:40:40;9.00;99.90
13344;DHT22;6741;48.964;9.406;2022-09-20T01:43:17;9.00;99.90
13344;DHT22;6741;48.964;9.406;2022-09-20T01:45:48;9.00;99.90
13344;DHT22;6741;48.964;9.406;2022-09-20T01:48:23;9.00;99.90
13344;DHT22;6741;48.964;9.406;2022-09-20T01:51:06;9.00;99.90
13344;DHT22;6741;48.964;9.406;2022-09-20T01:57:09;9.00;99.90
13344;DHT22;6741;48.964;9.406;2022-09-20T02:00:04;9.00;99.90
13344;DHT22;6741;48.964;9.406;2022-09-20T02:11:40;9.00;99.90
13344;DHT22;6741;48.964;9.406;2022-09-20T02:14:37;9.00;99.90
13344;DHT22;6741;48.964;9.406;2022-09-20T02:17:13;8.90;99.90
13344;DHT22;6741;48.964;9.406;2022-09-20T02:19:50;8.90;99.90
13344;DHT22;6741;48.964;9.406;2022-09-20T02:22:28;8.90;99.90
13344;DHT22;6741;48.964;9.406;2022-09-20T02:25:05;8.90;99.90
13344;DHT22;6741;48.964;9.406;2022-09-20T02:27:42;9.00;99.90
13344;DHT22;6741;48.964;9.406;2022-09-20T02:30:22;9.00;99.90
13344;DHT22;6741;48.964;9.406;2022-09-20T02:33:10;9.00;99.90
13344;DHT22;6741;48.964;9.406;2022-09-20T02:35:51;8.90;99.90
13344;DHT22;6741;48.964;9.406;2022-09-20T02:38:29;8.90;99.90
13344;DHT22;6741;48.964;9.406;2022-09-20T02:43:59;8.90;99.90
13344;DHT22;6741;48.964;9.406;2022-09-20T02:46:32;8.80;99.90
13344;DHT22;6741;48.964;9.406;2022-09-20T02:49:06;8.80;99.90
13344;DHT22;6741;48.964;9.406;2022-09-20T02:51:40;8.80;99.90
13344;DHT22;6741;48.964;9.406;2022-09-20T02:54:17;8.80;99.90
13344;DHT22;6741;48.964;9.406;2022-09-20T02:56:53;8.80;99.90
13344;DHT22;6741;48.964;9.406;2022-09-20T02:59:29;8.80;99.90
13344;DHT22;6741;48.964;9.406;2022-09-20T03:02:08;8.80;99.90
13344;DHT22;6741;48.964;9.406;2022-09-20T03:04:53;8.80;99.90
13344;DHT22;6741;48.964;9.406;2022-09-20T03:07:33;8.90;99.90
13344;DHT22;6741;48.964;9.406;2022-09-20T03:10:13;8.90;99.90
13344;DHT22;6741;48.964;9.406;2022-09-20T03:12:52;8.90;99.90
13344;DHT22;6741;48.964;9.406;2022-09-20T03:15:29;8.90;99.90
13344;DHT22;6741;48.964;9.406;2022-09-20T03:18:05;8.80;99.90
13344;DHT22;6741;48.964;9.406;2022-09-20T03:20:40;8.90;99.90
13344;DHT22;6741;48.964;9.406;2022-09-20T03:23:21;8.90;99.90
13344;DHT22;6741;48.964;9.406;2022-09-20T03:25:54;8.90;99.90
13344;DHT22;6741;48.964;9.406;2022-09-20T03:28:40;8.90;99.90
13344;DHT22;6741;48.964;9.406;2022-09-20T03:31:21;8.90;99.90
13344;DHT22;6741;48.964;9.406;2022-09-20T03:33:59;9.00;99.90
13344;DHT22;6741;48.964;9.406;2022-09-20T03:36:44;8.90;99.90
13344;DHT22;6741;48.964;9.406;2022-09-20T03:39:36;9.00;99.90
13344;DHT22;6741;48.964;9.406;2022-09-20T03:42:13;9.00;99.90
13344;DHT22;6741;48.964;9.406;2022-09-20T03:45:04;9.00;99.90
13344;DHT22;6741;48.964;9.406;2022-09-20T03:50:50;9.10;99.90
13344;DHT22;6741;48.964;9.406;2022-09-20T03:59:47;9.00;99.90
13344;DHT22;6741;48.964;9.406;2022-09-20T04:02:44;8.90;99.90
13344;DHT22;6741;48.964;9.406;2022-09-20T04:05:23;8.90;99.90
13344;DHT22;6741;48.964;9.406;2022-09-20T04:08:04;8.90;99.90
13344;DHT22;6741;48.964;9.406;2022-09-20T04:10:44;9.00;99.90
13344;DHT22;6741;48.964;9.406;2022-09-20T04:13:31;9.00;99.90
13344;DHT22;6741;48.964;9.406;2022-09-20T04:16:12;9.00;99.90
13344;DHT22;6741;48.964;9.406;2022-09-20T04:18:45;9.00;99.90
13344;DHT22;6741;48.964;9.406;2022-09-20T04:21:19;9.00;99.90
13344;DHT22;6741;48.964;9.406;2022-09-20T04:23:53;9.00;99.90
13344;DHT22;6741;48.964;9.406;2022-09-20T04:26:25;9.00;99.90
13344;DHT22;6741;48.964;9.406;2022-09-20T04:28:56;9.00;99.90
13344;DHT22;6741;48.964;9.406;2022-09-20T04:31:35;9.00;99.90
13344;DHT22;6741;48.964;9.406;2022-09-20T04:34:09;9.00;99.90
13344;DHT22;6741;48.964;9.406;2022-09-20T04:36:55;9.00;99.90
13344;DHT22;6741;48.964;9.406;2022-09-20T04:39:30;8.90;99.90
13344;DHT22;6741;48.964;9.406;2022-09-20T04:42:26;8.80;99.90
13344;DHT22;6741;48.964;9.406;2022-09-20T04:45:12;8.70;99.90
13344;DHT22;6741;48.964;9.406;2022-09-20T04:48:18;8.60;99.90
13344;DHT22;6741;48.964;9.406;2022-09-20T04:51:25;8.50;99.90
13344;DHT22;6741;48.964;9.406;2022-09-20T04:54:42;8.40;99.90
13344;DHT22;6741;48.964;9.406;2022-09-20T05:00:12;8.20;99.90
13344;DHT22;6741;48.964;9.406;2022-09-20T05:03:02;8.20;99.90
13344;DHT22;6741;48.964;9.406;2022-09-20T05:06:09;8.10;99.90
13344;DHT22;6741;48.964;9.406;2022-09-20T05:09:07;8.10;99.90
13344;DHT22;6741;48.964;9.406;2022-09-20T05:11:56;8.00;99.90
13344;DHT22;6741;48.964;9.406;2022-09-20T05:15:06;8.10;99.90
13344;DHT22;6741;48.964;9.406;2022-09-20T05:17:42;8.10;99.90
13344;DHT22;6741;48.964;9.406;2022-09-20T05:20:30;8.10;99.90
13344;DHT22;6741;48.964;9.406;2022-09-20T05:23:17;8.10;99.90
13344;DHT22;6741;48.964;9.406;2022-09-20T05:26:02;8.10;99.90
13344;DHT22;6741;48.964;9.406;2022-09-20T05:28:35;8.10;99.90
13344;DHT22;6741;48.964;9.406;2022-09-20T05:31:08;8.00;99.90
13344;DHT22;6741;48.964;9.406;2022-09-20T05:33:42;8.00;99.90
13344;DHT22;6741;48.964;9.406;2022-09-20T05:36:18;8.00;99.90
13344;DHT22;6741;48.964;9.406;2022-09-20T05:38:50;8.00;99.90
13344;DHT22;6741;48.964;9.406;2022-09-20T05:41:29;8.00;99.90
13344;DHT22;6741;48.964;9.406;2022-09-20T05:44:07;8.00;99.90
13344;DHT22;6741;48.964;9.406;2022-09-20T05:46:47;8.00;99.90
13344;DHT22;6741;48.964;9.406;2022-09-20T05:49:23;8.00;99.90
13344;DHT22;6741;48.964;9.406;2022-09-20T05:52:03;8.00;99.90
13344;DHT22;6741;48.964;9.406;2022-09-20T05:54:54;8.00;99.90
13344;DHT22;6741;48.964;9.406;2022-09-20T05:57:32;8.00;99.90
13344;DHT22;6741;48.964;9.406;2022-09-20T06:00:09;8.00;99.90
13344;DHT22;6741;48.964;9.406;2022-09-20T06:02:45;8.10;99.90
13344;DHT22;6741;48.964;9.406;2022-09-20T06:05:15;8.10;99.90
13344;DHT22;6741;48.964;9.406;2022-09-20T06:07:55;8.10;99.90
13344;DHT22;6741;48.964;9.406;2022-09-20T06:10:45;8.10;99.90
13344;DHT22;6741;48.964;9.406;2022-09-20T06:13:34;8.10;99.90
13344;DHT22;6741;48.964;9.406;2022-09-20T06:16:08;8.10;99.90
13344;DHT22;6741;48.964;9.406;2022-09-20T06:18:42;8.20;99.90
13344;DHT22;6741;48.964;9.406;2022-09-20T06:21:18;8.10;99.90
13344;DHT22;6741;48.964;9.406;2022-09-20T06:23:49;8.20;99.90
13344;DHT22;6741;48.964;9.406;2022-09-20T06:26:20;8.10;99.90
13344;DHT22;6741;48.964;9.406;2022-09-20T06:28:50;8.10;99.90
13344;DHT22;6741;48.964;9.406;2022-09-20T06:31:19;8.10;99.90
13344;DHT22;6741;48.964;9.406;2022-09-20T06:33:52;8.10;99.90
13344;DHT22;6741;48.964;9.406;2022-09-20T06:36:24;8.20;99.90
13344;DHT22;6741;48.964;9.406;2022-09-20T06:39:17;8.20;99.90
13344;DHT22;6741;48.964;9.406;2022-09-20T06:42:10;8.30;99.90
13344;DHT22;6741;48.964;9.406;2022-09-20T06:44:37;8.40;99.90
13344;DHT22;6741;48.964;9.406;2022-09-20T06:47:05;8.50;99.90
13344;DHT22;6741;48.964;9.406;2022-09-20T06:49:33;8.50;99.90
13344;DHT22;6741;48.964;9.406;2022-09-20T06:52:02;8.50;99.90
13344;DHT22;6741;48.964;9.406;2022-09-20T06:54:29;8.50;99.90
13344;DHT22;6741;48.964;9.406;2022-09-20T06:56:57;8.60;99.90
13344;DHT22;6741;48.964;9.406;2022-09-20T06:59:28;8.60;99.90
13344;DHT22;6741;48.964;9.406;2022-09-20T07:01:55;8.60;99.90
13344;DHT22;6741;48.964;9.406;2022-09-20T07:04:22;8.60;99.90
13344;DHT22;6741;48.964;9.406;2022-09-20T07:06:51;8.70;99.90
13344;DHT22;6741;48.964;9.406;2022-09-20T07:09:19;8.60;99.90
13344;DHT22;6741;48.964;9.406;2022-09-20T07:11:46;8.60;99.90
13344;DHT22;6741;48.964;9.406;2022-09-20T07:14:13;8.70;99.90
13344;DHT22;6741;48.964;9.406;2022-09-20T07:16:41;8.80;99.90
13344;DHT22;6741;48.964;9.406;2022-09-20T07:19:08;9.00;99.90
13344;DHT22;6741;48.964;9.406;2022-09-20T07:21:35;9.10;99.90
13344;DHT22;6741;48.964;9.406;2022-09-20T07:24:02;9.30;99.90
13344;DHT22;6741;48.964;9.406;2022-09-20T07:26:29;9.50;99.90
13344;DHT22;6741;48.964;9.406;2022-09-20T07:28:58;9.60;99.90
13344;DHT22;6741;48.964;9.406;2022-09-20T07:31:27;9.80;99.90
13344;DHT22;6741;48.964;9.406;2022-09-20T07:33:55;10.00;99.90
13344;DHT22;6741;48.964;9.406;2022-09-20T07:36:23;10.00;99.90
13344;DHT22;6741;48.964;9.406;2022-09-20T07:38:51;10.10;99.90
13344;DHT22;6741;48.964;9.406;2022-09-20T07:41:18;10.00;99.90
13344;DHT22;6741;48.964;9.406;2022-09-20T07:43:47;10.00;99.90
13344;DHT22;6741;48.964;9.406;2022-09-20T07:46:15;10.20;99.90
13344;DHT22;6741;48.964;9.406;2022-09-20T07:48:43;10.20;99.90
13344;DHT22;6741;48.964;9.406;2022-09-20T07:51:12;10.20;99.90
13344;DHT22;6741;48.964;9.406;2022-09-20T07:53:40;10.30;99.90
13344;DHT22;6741;48.964;9.406;2022-09-20T07:56:10;10.40;99.90
13344;DHT22;6741;48.964;9.406;2022-09-20T07:58:38;10.60;99.90
13344;DHT22;6741;48.964;9.406;2022-09-20T08:01:06;10.80;99.90
13344;DHT22;6741;48.964;9.406;2022-09-20T08:03:34;10.90;99.90
13344;DHT22;6741;48.964;9.406;2022-09-20T08:06:03;10.90;99.90
13344;DHT22;6741;48.964;9.406;2022-09-20T08:08:33;11.10;99.90
13344;DHT22;6741;48.964;9.406;2022-09-20T08:11:02;11.20;99.90
13344;DHT22;6741;48.964;9.406;2022-09-20T08:13:31;11.20;99.90
13344;DHT22;6741;48.964;9.406;2022-09-20T08:16:04;11.20;99.90
13344;DHT22;6741;48.964;9.406;2022-09-20T08:18:32;11.00;99.90
13344;DHT22;6741;48.964;9.406;2022-09-20T08:21:02;11.10;99.90
13344;DHT22;6741;48.964;9.406;2022-09-20T08:23:33;11.10;99.90
13344;DHT22;6741;48.964;9.406;2022-09-20T08:26:00;11.10;99.90
13344;DHT22;6741;48.964;9.406;2022-09-20T08:28:27;11.20;99.90
13344;DHT22;6741;48.964;9.406;2022-09-20T08:31:00;11.10;99.90
13344;DHT22;6741;48.964;9.406;2022-09-20T08:33:27;11.10;99.90
13344;DHT22;6741;48.964;9.406;2022-09-20T08:35:53;11.20;99.90
13344;DHT22;6741;48.964;9.406;2022-09-20T08:38:20;11.30;99.90
13344;DHT22;6741;48.964;9.406;2022-09-20T08:40:54;11.30;99.90
13344;DHT22;6741;48.964;9.406;2022-09-20T08:43:26;11.30;99.90
13344;DHT22;6741;48.964;9.406;2022-09-20T08:45:54;11.40;99.90
13344;DHT22;6741;48.964;9.406;2022-09-20T08:48:27;11.60;99.90
13344;DHT22;6741;48.964;9.406;2022-09-20T08:50:58;11.90;99.90
13344;DHT22;6741;48.964;9.406;2022-09-20T08:53:26;12.20;99.90
13344;DHT22;6741;48.964;9.406;2022-09-20T08:55:55;12.50;99.90
13344;DHT22;6741;48.964;9.406;2022-09-20T08:58:24;12.90;99.90
13344;DHT22;6741;48.964;9.406;2022-09-20T09:00:52;12.50;99.90
13344;DHT22;6741;48.964;9.406;2022-09-20T09:03:20;12.40;99.90
13344;DHT22;6741;48.964;9.406;2022-09-20T09:05:49;12.60;99.90
13344;DHT22;6741;48.964;9.406;2022-09-20T09:08:18;12.80;99.90
13344;DHT22;6741;48.964;9.406;2022-09-20T09:10:50;12.90;99.90
13344;DHT22;6741;48.964;9.406;2022-09-20T09:13:29;12.90;43.10
13344;DHT22;6741;48.964;9.406;2022-09-20T09:16:00;12.50;46.10
13344;DHT22;6741;48.964;9.406;2022-09-20T09:18:31;12.80;34.40
13344;DHT22;6741;48.964;9.406;2022-09-20T09:21:00;13.10;93.00
13344;DHT22;6741;48.964;9.406;2022-09-20T09:23:30;13.20;99.90
13344;DHT22;6741;48.964;9.406;2022-09-20T09:26:04;13.00;94.20
13344;DHT22;6741;48.964;9.406;2022-09-20T09:28:32;12.90;72.60
13344;DHT22;6741;48.964;9.406;2022-09-20T09:31:12;12.30;1.00
13344;DHT22;6741;48.964;9.406;2022-09-20T09:33:42;12.40;23.80
13344;DHT22;6741;48.964;9.406;2022-09-20T09:36:14;12.50;17.70
13344;DHT22;6741;48.964;9.406;2022-09-20T09:38:42;13.10;38.30
13344;DHT22;6741;48.964;9.406;2022-09-20T09:41:21;13.40;4.60
13344;DHT22;6741;48.964;9.406;2022-09-20T09:43:58;13.60;1.00
13344;DHT22;6741;48.964;9.406;2022-09-20T09:46:28;13.70;1.00
13344;DHT22;6741;48.964;9.406;2022-09-20T09:49:14;13.70;1.00
13344;DHT22;6741;48.964;9.406;2022-09-20T09:51:59;13.50;1.00
13344;DHT22;6741;48.964;9.406;2022-09-20T09:54:28;13.30;1.00
13344;DHT22;6741;48.964;9.406;2022-09-20T09:57:05;13.50;6.90
13344;DHT22;6741;48.964;9.406;2022-09-20T09:59:55;13.60;1.00
13344;DHT22;6741;48.964;9.406;2022-09-20T10:02:50;13.80;1.00
13344;DHT22;6741;48.964;9.406;2022-09-20T10:05:22;14.70;99.90
13344;DHT22;6741;48.964;9.406;2022-09-20T10:07:56;15.40;99.90
13344;DHT22;6741;48.964;9.406;2022-09-20T10:10:32;15.30;1.00
13344;DHT22;6741;48.964;9.406;2022-09-20T10:13:08;15.20;99.90
13344;DHT22;6741;48.964;9.406;2022-09-20T10:15:43;15.40;1.00
13344;DHT22;6741;48.964;9.406;2022-09-20T10:18:25;14.50;1.00
13344;DHT22;6741;48.964;9.406;2022-09-20T10:21:03;15.00;1.00
13344;DHT22;6741;48.964;9.406;2022-09-20T10:24:02;16.40;1.00
13344;DHT22;6741;48.964;9.406;2022-09-20T10:29:31;15.80;99.90
13344;DHT22;6741;48.964;9.406;2022-09-20T10:32:08;15.20;1.00
13344;DHT22;6741;48.964;9.406;2022-09-20T10:35:02;14.50;1.00
13344;DHT22;6741;48.964;9.406;2022-09-20T10:37:39;14.20;99.90
13344;DHT22;6741;48.964;9.406;2022-09-20T10:40:24;13.90;1.00
13344;DHT22;6741;48.964;9.406;2022-09-20T10:43:23;13.60;1.00
13344;DHT22;6741;48.964;9.406;2022-09-20T10:46:00;13.40;1.00
13344;DHT22;6741;48.964;9.406;2022-09-20T10:48:32;13.60;1.00
13344;DHT22;6741;48.964;9.406;2022-09-20T10:51:06;13.70;1.00
13344;DHT22;6741;48.964;9.406;2022-09-20T10:53:42;13.80;1.00
13344;DHT22;6741;48.964;9.406;2022-09-20T10:56:25;14.60;99.90
13344;DHT22;6741;48.964;9.406;2022-09-20T10:59:21;14.70;46.10
13344;DHT22;6741;48.964;9.406;2022-09-20T11:02:03;14.50;99.90
13344;DHT22;6741;48.964;9.406;2022-09-20T11:04:46;14.10;99.90
13344;DHT22;6741;48.964;9.406;2022-09-20T11:07:17;15.20;99.90
13344;DHT22;6741;48.964;9.406;2022-09-20T11:09:52;15.60;99.90
13344;DHT22;6741;48.964;9.406;2022-09-20T11:12:24;16.30;99.90
13344;DHT22;6741;48.964;9.406;2022-09-20T11:14:56;15.50;99.90
13344;DHT22;6741;48.964;9.406;2022-09-20T11:17:26;16.30;99.90
13344;DHT22;6741;48.964;9.406;2022-09-20T11:20:00;17.10;1.00
13344;DHT22;6741;48.964;9.406;2022-09-20T11:22:33;16.60;99.90
13344;DHT22;6741;48.964;9.406;2022-09-20T11:25:05;16.60;1.00
13344;DHT22;6741;48.964;9.406;2022-09-20T11:27:37;17.90;99.90
13344;DHT22;6741;48.964;9.406;2022-09-20T11:30:12;18.90;49.30
13344;DHT22;6741;48.964;9.406;2022-09-20T11:32:43;20.50;1.00
13344;DHT22;6741;48.964;9.406;2022-09-20T11:35:24;19.80;99.90
13344;DHT22;6741;48.964;9.406;2022-09-20T11:38:00;18.40;1.00
13344;DHT22;6741;48.964;9.406;2022-09-20T11:40:32;17.30;1.00
13344;DHT22;6741;48.964;9.406;2022-09-20T11:43:02;16.50;99.90
13344;DHT22;6741;48.964;9.406;2022-09-20T11:45:31;15.40;1.00
13344;DHT22;6741;48.964;9.406;2022-09-20T11:48:01;15.10;1.00
13344;DHT22;6741;48.964;9.406;2022-09-20T11:51:02;14.90;99.90
13344;DHT22;6741;48.964;9.406;2022-09-20T11:53:51;14.70;1.00
13344;DHT22;6741;48.964;9.406;2022-09-20T11:56:25;14.40;1.00
13344;DHT22;6741;48.964;9.406;2022-09-20T11:58:54;14.60;99.90
13344;DHT22;6741;48.964;9.406;2022-09-20T12:01:26;14.50;99.90
13344;DHT22;6741;48.964;9.406;2022-09-20T12:03:58;14.40;99.90
13344;DHT22;6741;48.964;9.406;2022-09-20T12:06:30;14.60;99.90
13344;DHT22;6741;48.964;9.406;2022-09-20T12:09:00;16.80;1.00
13344;DHT22;6741;48.964;9.406;2022-09-20T12:11:30;19.10;1.00
13344;DHT22;6741;48.964;9.406;2022-09-20T12:14:02;20.30;99.90
13344;DHT22;6741;48.964;9.406;2022-09-20T12:16:41;21.50;1.00
13344;DHT22;6741;48.964;9.406;2022-09-20T12:19:10;22.20;99.90
13344;DHT22;6741;48.964;9.406;2022-09-20T12:22:24;23.00;15.70
13344;DHT22;6741;48.964;9.406;2022-09-20T12:27:56;24.40;99.90
13344;DHT22;6741;48.964;9.406;2022-09-20T12:30:24;24.20;99.90
13344;DHT22;6741;48.964;9.406;2022-09-20T12:32:55;20.90;99.90
13344;DHT22;6741;48.964;9.406;2022-09-20T12:36:11;18.80;99.90
13344;DHT22;6741;48.964;9.406;2022-09-20T12:38:58;17.90;99.90
13344;DHT22;6741;48.964;9.406;2022-09-20T12:41:26;16.80;99.90
13344;DHT22;6741;48.964;9.406;2022-09-20T12:43:59;16.20;99.90
13344;DHT22;6741;48.964;9.406;2022-09-20T12:46:40;15.80;99.90
13344;DHT22;6741;48.964;9.406;2022-09-20T12:49:30;15.50;99.90
13344;DHT22;6741;48.964;9.406;2022-09-20T12:52:32;15.20;99.90
13344;DHT22;6741;48.964;9.406;2022-09-20T12:55:39;14.80;99.90
13344;DHT22;6741;48.964;9.406;2022-09-20T12:58:23;14.60;99.90
13344;DHT22;6741;48.964;9.406;2022-09-20T13:01:27;14.70;99.90
13344;DHT22;6741;48.964;9.406;2022-09-20T13:07:28;15.00;99.90
13344;DHT22;6741;48.964;9.406;2022-09-20T13:10:02;15.20;99.90
13344;DHT22;6741;48.964;9.406;2022-09-20T13:12:36;15.20;99.90
13344;DHT22;6741;48.964;9.406;2022-09-20T13:15:05;15.40;99.90
13344;DHT22;6741;48.964;9.406;2022-09-20T13:17:33;15.50;99.90
13344;DHT22;6741;48.964;9.406;2022-09-20T13:20:01;15.80;99.90
13344;DHT22;6741;48.964;9.406;2022-09-20T13:22:30;17.50;99.90
13344;DHT22;6741;48.964;9.406;2022-09-20T13:25:03;20.00;99.90
13344;DHT22;6741;48.964;9.406;2022-09-20T13:27:34;21.60;99.90
13344;DHT22;6741;48.964;9.406;2022-09-20T13:30:10;22.70;99.90
13344;DHT22;6741;48.964;9.406;2022-09-20T13:32:40;25.10;99.90
13344;DHT22;6741;48.964;9.406;2022-09-20T13:35:13;26.00;99.90
13344;DHT22;6741;48.964;9.406;2022-09-20T13:37:49;25.60;96.80
13344;DHT22;6741;48.964;9.406;2022-09-20T13:40:17;25.40;95.50
13344;DHT22;6741;48.964;9.406;2022-09-20T13:42:46;25.70;94.50
13344;DHT22;6741;48.964;9.406;2022-09-20T13:45:14;25.60;94.10
13344;DHT22;6741;48.964;9.406;2022-09-20T13:47:43;24.50;91.90
13344;DHT22;6741;48.964;9.406;2022-09-20T13:50:19;23.30;92.70
13344;DHT22;6741;48.964;9.406;2022-09-20T13:52:48;21.50;93.70
13344;DHT22;6741;48.964;9.406;2022-09-20T13:55:27;19.90;95.50
13344;DHT22;6741;48.964;9.406;2022-09-20T13:57:59;19.70;96.30
13344;DHT22;6741;48.964;9.406;2022-09-20T14:00:28;18.40;99.20
13344;DHT22;6741;48.964;9.406;2022-09-20T14:02:56;17.10;99.90
13344;DHT22;6741;48.964;9.406;2022-09-20T14:05:25;16.10;99.90
13344;DHT22;6741;48.964;9.406;2022-09-20T14:07:53;15.50;99.90
13344;DHT22;6741;48.964;9.406;2022-09-20T14:10:32;15.60;99.90
13344;DHT22;6741;48.964;9.406;2022-09-20T14:13:06;15.60;99.90
13344;DHT22;6741;48.964;9.406;2022-09-20T14:15:36;15.90;99.90
13344;DHT22;6741;48.964;9.406;2022-09-20T14:18:06;16.40;99.90
13344;DHT22;6741;48.964;9.406;2022-09-20T14:20:35;16.90;99.90
13344;DHT22;6741;48.964;9.406;2022-09-20T14:23:02;17.90;99.90
13344;DHT22;6741;48.964;9.406;2022-09-20T14:25:29;18.80;99.90
13344;DHT22;6741;48.964;9.406;2022-09-20T14:28:16;19.70;99.90
13344;DHT22;6741;48.964;9.406;2022-09-20T14:30:44;20.30;99.90
13344;DHT22;6741;48.964;9.406;2022-09-20T14:33:15;20.80;99.90
13344;DHT22;6741;48.964;9.406;2022-09-20T14:35:48;21.10;99.90
13344;DHT22;6741;48.964;9.406;2022-09-20T14:38:17;20.00;99.90
13344;DHT22;6741;48.964;9.406;2022-09-20T14:40:46;20.00;99.90
13344;DHT22;6741;48.964;9.406;2022-09-20T14:43:24;20.40;99.90
13344;DHT22;6741;48.964;9.406;2022-09-20T14:45:54;20.70;99.90
13344;DHT22;6741;48.964;9.406;2022-09-20T14:48:33;20.20;99.90
13344;DHT22;6741;48.964;9.406;2022-09-20T14:51:21;19.80;99.90
13344;DHT22;6741;48.964;9.406;2022-09-20T14:53:51;20.60;99.90
13344;DHT22;6741;48.964;9.406;2022-09-20T14:56:31;21.00;99.90
13344;DHT22;6741;48.964;9.406;2022-09-20T14:59:19;21.10;99.90
13344;DHT22;6741;48.964;9.406;2022-09-20T15:01:56;19.50;99.90
13344;DHT22;6741;48.964;9.406;2022-09-20T15:04:25;18.80;99.90
13344;DHT22;6741;48.964;9.406;2022-09-20T15:06:53;19.20;99.90
13344;DHT22;6741;48.964;9.406;2022-09-20T15:09:21;20.10;99.90
13344;DHT22;6741;48.964;9.406;2022-09-20T15:11:59;18.90;99.90
13344;DHT22;6741;48.964;9.406;2022-09-20T15:14:27;18.90;99.90
13344;DHT22;6741;48.964;9.406;2022-09-20T15:16:54;19.70;99.90
13344;DHT22;6741;48.964;9.406;2022-09-20T15:19:23;19.30;99.90
13344;DHT22;6741;48.964;9.406;2022-09-20T15:21:50;19.40;99.90
13344;DHT22;6741;48.964;9.406;2022-09-20T15:24:17;18.00;99.90
13344;DHT22;6741;48.964;9.406;2022-09-20T15:26:44;17.40;99.90
13344;DHT22;6741;48.964;9.406;2022-09-20T15:29:13;16.40;99.90
13344;DHT22;6741;48.964;9.406;2022-09-20T15:31:45;15.80;99.90
13344;DHT22;6741;48.964;9.406;2022-09-20T15:34:12;15.50;99.90
13344;DHT22;6741;48.964;9.406;2022-09-20T15:36:39;15.40;99.90
13344;DHT22;6741;48.964;9.406;2022-09-20T15:39:07;15.30;99.90
13344;DHT22;6741;48.964;9.406;2022-09-20T15:41:34;14.90;99.90
13344;DHT22;6741;48.964;9.406;2022-09-20T15:44:01;14.70;99.90
13344;DHT22;6741;48.964;9.406;2022-09-20T15:46:29;14.60;99.90
13344;DHT22;6741;48.964;9.406;2022-09-20T15:48:59;14.40;99.90
13344;DHT22;6741;48.964;9.406;2022-09-20T15:51:27;14.30;99.90
13344;DHT22;6741;48.964;9.406;2022-09-20T15:53:57;14.30;99.90
13344;DHT22;6741;48.964;9.406;2022-09-20T15:56:26;14.30;99.90
13344;DHT22;6741;48.964;9.406;2022-09-20T15:58:54;14.30;99.90
13344;DHT22;6741;48.964;9.406;2022-09-20T16:01:24;14.30;99.90
13344;DHT22;6741;48.964;9.406;2022-09-20T16:03:51;14.30;99.90
13344;DHT22;6741;48.964;9.406;2022-09-20T16:06:20;14.00;99.90
13344;DHT22;6741;48.964;9.406;2022-09-20T16:08:47;14.00;99.90
13344;DHT22;6741;48.964;9.406;2022-09-20T16:11:16;14.00;99.90
13344;DHT22;6741;48.964;9.406;2022-09-20T16:13:44;14.00;99.90
13344;DHT22;6741;48.964;9.406;2022-09-20T16:16:11;13.90;99.90
13344;DHT22;6741;48.964;9.406;2022-09-20T16:18:40;13.80;99.90
13344;DHT22;6741;48.964;9.406;2022-09-20T16:21:26;13.60;99.90
13344;DHT22;6741;48.964;9.406;2022-09-20T16:23:55;13.60;99.90
13344;DHT22;6741;48.964;9.406;2022-09-20T16:26:24;13.40;99.90
13344;DHT22;6741;48.964;9.406;2022-09-20T16:28:52;13.30;99.90
13344;DHT22;6741;48.964;9.406;2022-09-20T16:31:31;13.20;99.90
13344;DHT22;6741;48.964;9.406;2022-09-20T16:33:59;13.10;99.90
13344;DHT22;6741;48.964;9.406;2022-09-20T16:36:29;13.00;99.90
13344;DHT22;6741;48.964;9.406;2022-09-20T16:38:56;12.90;99.90
13344;DHT22;6741;48.964;9.406;2022-09-20T16:41:24;12.90;99.90
13344;DHT22;6741;48.964;9.406;2022-09-20T16:43:53;12.90;99.90
13344;DHT22;6741;48.964;9.406;2022-09-20T16:46:23;12.80;99.90
13344;DHT22;6741;48.964;9.406;2022-09-20T16:48:52;12.70;99.90
13344;DHT22;6741;48.964;9.406;2022-09-20T16:51:19;12.60;99.90
13344;DHT22;6741;48.964;9.406;2022-09-20T16:53:51;12.60;99.90
13344;DHT22;6741;48.964;9.406;2022-09-20T16:56:21;12.50;99.90
13344;DHT22;6741;48.964;9.406;2022-09-20T16:58:49;12.50;99.90
13344;DHT22;6741;48.964;9.406;2022-09-20T17:01:16;12.40;99.90
13344;DHT22;6741;48.964;9.406;2022-09-20T17:03:43;12.30;99.90
13344;DHT22;6741;48.964;9.406;2022-09-20T17:06:12;12.30;99.90
13344;DHT22;6741;48.964;9.406;2022-09-20T17:08:40;12.20;99.90
13344;DHT22;6741;48.964;9.406;2022-09-20T17:11:12;12.10;99.90
13344;DHT22;6741;48.964;9.406;2022-09-20T17:13:40;12.00;99.90
13344;DHT22;6741;48.964;9.406;2022-09-20T17:16:09;12.00;99.90
13344;DHT22;6741;48.964;9.406;2022-09-20T17:18:37;11.90;99.90
13344;DHT22;6741;48.964;9.406;2022-09-20T17:21:08;11.80;99.90